createdAt,value
2019-02-27T00:00:43.972Z,44.78
2019-02-27T00:01:42.429Z,43.97
2019-02-27T00:02:42.393Z,44.66
2019-02-27T00:03:42.383Z,44.66
2019-02-27T00:04:42.372Z,45.26
2019-02-27T00:05:42.446Z,44.66
2019-02-27T00:06:42.363Z,44.46
2019-02-27T00:07:42.342Z,44.25
2019-02-27T00:08:42.335Z,44.37
2019-02-27T00:09:42.316Z,44.15
2019-02-27T00:10:42.309Z,44.46
2019-02-27T00:11:45.845Z,43.83
2019-02-27T00:12:42.287Z,43.23
2019-02-27T00:13:42.276Z,42.80
2019-02-27T00:14:42.264Z,42.15
2019-02-27T00:15:42.252Z,42.03
2019-02-27T00:16:44.592Z,40.60
2019-02-27T00:17:42.244Z,41.19
2019-02-27T00:18:42.225Z,40.18
2019-02-27T00:19:42.210Z,39.96
2019-02-27T00:20:42.202Z,39.64
2019-02-27T00:21:43.531Z,38.71
2019-02-27T00:22:42.194Z,38.09
2019-02-27T00:23:42.246Z,37.98
2019-02-27T00:24:42.161Z,37.35
2019-02-27T00:25:42.148Z,36.85
2019-02-27T00:26:42.457Z,36.63
2019-02-27T00:27:42.143Z,36.52
2019-02-27T00:28:42.122Z,36.21
2019-02-27T00:29:42.102Z,35.50
2019-02-27T00:30:42.090Z,36.10
2019-02-27T00:31:45.224Z,35.28
2019-02-27T00:32:42.104Z,35.08
2019-02-27T00:33:42.056Z,34.78
2019-02-27T00:34:42.048Z,34.56
2019-02-27T00:35:42.037Z,34.96
2019-02-27T00:36:44.897Z,34.46
2019-02-27T00:37:42.021Z,34.96
2019-02-27T00:38:42.027Z,34.44
2019-02-27T00:39:41.992Z,34.24
2019-02-27T00:40:41.984Z,34.34
2019-02-27T00:41:45.685Z,34.53
2019-02-27T00:42:41.965Z,33.83
2019-02-27T00:43:41.981Z,34.33
2019-02-27T00:44:41.941Z,33.61
2019-02-27T00:45:41.927Z,34.11
2019-02-27T00:46:44.024Z,34.11
2019-02-27T00:47:41.915Z,33.61
2019-02-27T00:48:41.928Z,33.21
2019-02-27T00:49:41.889Z,33.41
2019-02-27T00:50:41.891Z,33.41
2019-02-27T00:51:44.706Z,33.81
2019-02-27T00:52:41.857Z,33.39
2019-02-27T00:53:41.864Z,33.20
2019-02-27T00:54:41.836Z,33.50
2019-02-27T00:55:41.827Z,33.20
2019-02-27T00:56:44.794Z,32.68
2019-02-27T00:57:41.808Z,32.98
2019-02-27T00:58:41.810Z,32.78
2019-02-27T00:59:41.785Z,32.48
2019-02-27T01:00:41.775Z,32.78
2019-02-27T01:01:41.768Z,32.68
2019-02-27T01:02:41.756Z,32.98
2019-02-27T01:03:41.762Z,32.98
2019-02-27T01:04:41.738Z,32.88
2019-02-27T01:05:41.769Z,32.78
2019-02-27T01:06:41.718Z,32.98
2019-02-27T01:07:41.695Z,33.08
2019-02-27T01:08:41.732Z,32.40
2019-02-27T01:09:41.675Z,33.09
2019-02-27T01:10:42.876Z,32.89
2019-02-27T01:11:41.659Z,33.31
2019-02-27T01:12:41.644Z,33.01
2019-02-27T01:13:41.638Z,33.41
2019-02-27T01:14:41.638Z,33.62
2019-02-27T01:15:41.768Z,34.64
2019-02-27T01:16:41.605Z,34.56
2019-02-27T01:17:41.593Z,34.66
2019-02-27T01:18:41.583Z,34.28
2019-02-27T01:19:42.816Z,34.88
2019-02-27T01:20:45.543Z,34.69
2019-02-27T01:21:41.549Z,34.89
2019-02-27T01:22:41.539Z,35.01
2019-02-27T01:23:43.894Z,35.41
2019-02-27T01:24:41.545Z,35.11
2019-02-27T01:25:41.514Z,35.73
2019-02-27T01:26:41.506Z,35.83
2019-02-27T01:27:41.490Z,36.15
2019-02-27T01:28:44.636Z,36.55
2019-02-27T01:29:41.483Z,36.05
2019-02-27T01:30:41.455Z,36.47
2019-02-27T01:31:41.445Z,37.17
2019-02-27T01:32:41.437Z,37.07
2019-02-27T01:33:41.426Z,37.39
2019-02-27T01:34:44.138Z,36.87
2019-02-27T01:35:41.400Z,37.08
2019-02-27T01:36:41.405Z,37.39
2019-02-27T01:37:41.379Z,37.37
2019-02-27T01:38:41.377Z,37.29
2019-02-27T01:39:41.819Z,37.69
2019-02-27T01:40:41.355Z,37.71
2019-02-27T01:41:41.343Z,37.30
2019-02-27T01:42:41.329Z,37.30
2019-02-27T01:43:41.320Z,37.41
2019-02-27T01:44:43.965Z,38.42
2019-02-27T01:45:42.300Z,38.11
2019-02-27T01:46:41.285Z,38.23
2019-02-27T01:47:41.285Z,38.11
2019-02-27T01:48:43.619Z,37.93
2019-02-27T01:49:41.294Z,37.93
2019-02-27T01:50:41.245Z,37.93
2019-02-27T01:51:41.239Z,38.13
2019-02-27T01:52:41.222Z,37.43
2019-02-27T01:53:41.307Z,37.32
2019-02-27T01:54:41.224Z,37.52
2019-02-27T01:55:41.195Z,38.55
2019-02-27T01:56:41.181Z,37.93
2019-02-27T01:57:41.167Z,37.63
2019-02-27T01:58:44.097Z,37.52
2019-02-27T01:59:41.151Z,38.23
2019-02-27T02:00:41.154Z,37.52
2019-02-27T02:01:41.129Z,37.61
2019-02-27T02:02:41.111Z,38.21
2019-02-27T02:03:41.108Z,37.49
2019-02-27T02:04:41.093Z,37.39
2019-02-27T02:05:41.101Z,36.87
2019-02-27T02:06:41.073Z,37.27
2019-02-27T02:07:41.067Z,36.36
2019-02-27T02:08:41.054Z,36.05
2019-02-27T02:09:41.039Z,35.64
2019-02-27T02:10:41.046Z,36.13
2019-02-27T02:11:41.271Z,34.92
2019-02-27T02:12:41.663Z,35.51
2019-02-27T02:13:41.003Z,35.11
2019-02-27T02:14:41.011Z,35.61
2019-02-27T02:15:40.991Z,34.99
2019-02-27T02:16:40.987Z,35.19
2019-02-27T02:17:41.627Z,34.99
2019-02-27T02:18:40.951Z,34.67
2019-02-27T02:19:40.935Z,34.80
2019-02-27T02:20:40.940Z,34.69
2019-02-27T02:21:40.921Z,34.80
2019-02-27T02:22:41.290Z,34.39
2019-02-27T02:23:40.895Z,34.19
2019-02-27T02:24:40.879Z,34.48
2019-02-27T02:25:40.916Z,34.09
2019-02-27T02:26:40.866Z,33.98
2019-02-27T02:27:41.542Z,34.08
2019-02-27T02:28:40.844Z,34.38
2019-02-27T02:29:40.837Z,34.66
2019-02-27T02:30:40.838Z,34.46
2019-02-27T02:31:42.496Z,34.46
2019-02-27T02:32:40.801Z,33.66
2019-02-27T02:33:40.791Z,33.86
2019-02-27T02:34:41.012Z,33.74
2019-02-27T02:35:40.794Z,33.36
2019-02-27T02:36:40.758Z,33.34
2019-02-27T02:37:40.742Z,33.34
2019-02-27T02:38:40.732Z,33.76
2019-02-27T02:39:40.736Z,34.16
2019-02-27T02:40:40.720Z,33.94
2019-02-27T02:41:46.246Z,34.06
2019-02-27T02:42:41.701Z,33.96
2019-02-27T02:43:41.987Z,33.28
2019-02-27T02:44:40.670Z,33.98
2019-02-27T02:45:40.673Z,34.67
2019-02-27T02:46:44.890Z,34.59
2019-02-27T02:47:40.640Z,33.98
2019-02-27T02:48:40.627Z,34.29
2019-02-27T02:49:42.651Z,34.29
2019-02-27T02:50:40.611Z,34.09
2019-02-27T02:51:40.613Z,34.41
2019-02-27T02:52:41.627Z,34.61
2019-02-27T02:53:40.576Z,35.01
2019-02-27T02:54:40.566Z,34.42
2019-02-27T02:55:40.561Z,34.73
2019-02-27T02:56:40.565Z,35.23
2019-02-27T02:57:40.533Z,35.64
2019-02-27T02:58:47.162Z,35.55
2019-02-27T02:59:41.512Z,35.35
2019-02-27T03:00:40.504Z,35.25
2019-02-27T03:01:40.504Z,35.25
2019-02-27T03:02:40.493Z,35.97
2019-02-27T03:03:40.467Z,35.66
2019-02-27T03:04:40.463Z,35.86
2019-02-27T03:05:40.446Z,35.66
2019-02-27T03:06:40.471Z,35.86
2019-02-27T03:07:44.437Z,35.46
2019-02-27T03:08:41.412Z,36.18
2019-02-27T03:09:40.407Z,36.49
2019-02-27T03:10:42.876Z,36.36
2019-02-27T03:11:40.389Z,36.07
2019-02-27T03:12:40.384Z,36.08
2019-02-27T03:13:41.970Z,36.29
2019-02-27T03:14:40.354Z,36.58
2019-02-27T03:15:40.341Z,36.08
2019-02-27T03:16:41.415Z,36.08
2019-02-27T03:17:40.335Z,35.98
2019-02-27T03:18:40.316Z,36.18
2019-02-27T03:19:41.775Z,36.79
2019-02-27T03:20:40.290Z,36.29
2019-02-27T03:21:40.280Z,36.69
2019-02-27T03:22:41.621Z,36.38
2019-02-27T03:23:40.260Z,36.30
2019-02-27T03:24:40.247Z,36.80
2019-02-27T03:25:41.781Z,36.38
2019-02-27T03:26:40.223Z,36.80
2019-02-27T03:27:40.231Z,37.01
2019-02-27T03:28:40.945Z,37.01
2019-02-27T03:29:40.207Z,36.50
2019-02-27T03:30:40.241Z,36.82
2019-02-27T03:31:40.176Z,37.10
2019-02-27T03:32:43.246Z,37.10
2019-02-27T03:33:40.157Z,37.41
2019-02-27T03:34:48.019Z,36.90
2019-02-27T03:35:41.127Z,36.92
2019-02-27T03:36:40.122Z,37.23
2019-02-27T03:37:40.121Z,36.72
2019-02-27T03:38:40.104Z,37.43
2019-02-27T03:39:40.093Z,37.63
2019-02-27T03:40:40.078Z,37.52
2019-02-27T03:41:40.071Z,37.52
2019-02-27T03:42:40.075Z,37.63
2019-02-27T03:43:45.625Z,37.43
2019-02-27T03:44:41.040Z,37.73
2019-02-27T03:45:40.029Z,37.63
2019-02-27T03:46:41.736Z,37.52
2019-02-27T03:47:40.014Z,37.85
2019-02-27T03:48:40.071Z,37.93
2019-02-27T03:49:40.897Z,37.95
2019-02-27T03:50:39.980Z,38.25
2019-02-27T03:51:39.963Z,37.74
2019-02-27T03:52:39.971Z,37.95
2019-02-27T03:53:43.262Z,38.17
2019-02-27T03:54:40.959Z,38.35
2019-02-27T03:55:39.915Z,37.96
2019-02-27T03:56:43.486Z,38.05
2019-02-27T03:57:39.930Z,37.96
2019-02-27T03:58:39.888Z,38.45
2019-02-27T03:59:42.649Z,37.52
2019-02-27T04:00:42.057Z,36.60
2019-02-27T04:01:39.856Z,36.29
2019-02-27T04:02:42.047Z,36.18
2019-02-27T04:03:39.846Z,35.35
2019-02-27T04:04:39.824Z,35.03
2019-02-27T04:05:42.158Z,34.71
2019-02-27T04:06:40.803Z,34.09
2019-02-27T04:07:39.824Z,34.80
2019-02-27T04:08:43.506Z,33.78
2019-02-27T04:09:39.780Z,33.66
2019-02-27T04:10:39.762Z,33.16
2019-02-27T04:11:42.568Z,32.84
2019-02-27T04:12:39.756Z,32.74
2019-02-27T04:13:39.730Z,32.82
2019-02-27T04:14:41.993Z,33.53
2019-02-27T04:15:39.708Z,32.43
2019-02-27T04:16:39.696Z,31.93
2019-02-27T04:17:39.706Z,31.94
2019-02-27T04:18:39.679Z,32.64
2019-02-27T04:19:40.449Z,31.84
2019-02-27T04:20:39.658Z,33.14
2019-02-27T04:21:39.646Z,32.46
2019-02-27T04:22:39.658Z,33.47
2019-02-27T04:23:39.620Z,33.28
2019-02-27T04:24:39.613Z,33.89
2019-02-27T04:25:39.608Z,33.49
2019-02-27T04:26:41.911Z,33.49
2019-02-27T04:27:39.593Z,33.19
2019-02-27T04:28:39.571Z,34.71
2019-02-27T04:29:41.123Z,34.81
2019-02-27T04:30:39.549Z,34.33
2019-02-27T04:31:39.545Z,34.33
2019-02-27T04:32:39.541Z,34.14
2019-02-27T04:33:39.515Z,35.14
2019-02-27T04:34:39.504Z,34.24
2019-02-27T04:35:40.145Z,34.74
2019-02-27T04:36:39.487Z,34.84
2019-02-27T04:37:39.501Z,34.84
2019-02-27T04:38:39.462Z,34.46
2019-02-27T04:39:39.452Z,34.76
2019-02-27T04:40:41.744Z,35.26
2019-02-27T04:41:39.434Z,35.46
2019-02-27T04:42:39.419Z,34.86
2019-02-27T04:43:39.424Z,34.44
2019-02-27T04:44:39.638Z,34.76
2019-02-27T04:45:39.386Z,34.74
2019-02-27T04:46:39.380Z,34.46
2019-02-27T04:47:39.372Z,34.86
2019-02-27T04:48:39.367Z,34.56
2019-02-27T04:49:39.359Z,34.86
2019-02-27T04:50:41.720Z,34.66
2019-02-27T04:51:39.322Z,34.86
2019-02-27T04:52:39.314Z,35.66
2019-02-27T04:53:40.822Z,35.46
2019-02-27T04:54:41.535Z,35.26
2019-02-27T04:55:39.286Z,35.68
2019-02-27T04:56:39.272Z,35.16
2019-02-27T04:57:39.270Z,35.46
2019-02-27T04:58:42.864Z,35.66
2019-02-27T04:59:39.238Z,35.16
2019-02-27T05:00:39.244Z,35.36
2019-02-27T05:01:39.223Z,35.46
2019-02-27T05:02:39.206Z,35.16
2019-02-27T05:03:39.213Z,35.97
2019-02-27T05:04:39.188Z,35.97
2019-02-27T05:05:41.406Z,36.36
2019-02-27T05:06:39.166Z,35.57
2019-02-27T05:07:39.160Z,34.36
2019-02-27T05:08:39.165Z,33.36
2019-02-27T05:09:39.136Z,33.45
2019-02-27T05:10:40.595Z,34.26
2019-02-27T05:11:39.131Z,33.55
2019-02-27T05:12:39.102Z,34.17
2019-02-27T05:13:39.106Z,34.47
2019-02-27T05:14:39.081Z,34.58
2019-02-27T05:15:39.691Z,34.49
2019-02-27T05:16:39.066Z,34.89
2019-02-27T05:17:39.052Z,35.08
2019-02-27T05:18:39.056Z,34.69
2019-02-27T05:19:39.032Z,34.79
2019-02-27T05:20:39.034Z,34.79
2019-02-27T05:21:39.015Z,34.69
2019-02-27T05:22:38.992Z,35.30
2019-02-27T05:23:39.001Z,34.91
2019-02-27T05:24:41.021Z,35.41
2019-02-27T05:25:38.964Z,35.41
2019-02-27T05:26:38.954Z,35.51
2019-02-27T05:27:38.944Z,34.71
2019-02-27T05:28:38.954Z,35.11
2019-02-27T05:29:38.917Z,36.32
2019-02-27T05:30:38.914Z,36.02
2019-02-27T05:31:38.899Z,35.82
2019-02-27T05:32:38.890Z,36.52
2019-02-27T05:33:39.899Z,36.42
2019-02-27T05:34:38.887Z,36.52
2019-02-27T05:35:38.864Z,36.22
2019-02-27T05:36:38.853Z,35.60
2019-02-27T05:37:39.437Z,36.40
2019-02-27T05:38:40.965Z,36.60
2019-02-27T05:39:38.835Z,36.52
2019-02-27T05:40:38.810Z,36.32
2019-02-27T05:41:38.790Z,36.82
2019-02-27T05:42:39.554Z,36.84
2019-02-27T05:43:38.775Z,37.43
2019-02-27T05:44:38.773Z,37.23
2019-02-27T05:45:38.757Z,37.45
2019-02-27T05:46:39.131Z,38.05
2019-02-27T05:47:38.730Z,38.23
2019-02-27T05:48:38.722Z,38.95
2019-02-27T05:49:38.723Z,38.85
2019-02-27T05:50:38.702Z,38.73
2019-02-27T05:51:38.688Z,39.05
2019-02-27T05:52:38.687Z,38.65
2019-02-27T05:53:38.675Z,38.45
2019-02-27T05:54:38.673Z,39.56
2019-02-27T05:55:39.220Z,38.85
2019-02-27T05:56:38.638Z,38.75
2019-02-27T05:57:38.631Z,39.05
2019-02-27T05:58:38.618Z,40.28
2019-02-27T05:59:38.629Z,40.18
2019-02-27T06:00:38.598Z,40.18
2019-02-27T06:01:38.763Z,41.09
2019-02-27T06:02:38.580Z,40.99
2019-02-27T06:03:38.565Z,41.29
2019-02-27T06:04:38.570Z,41.89
2019-02-27T06:05:38.539Z,42.10
2019-02-27T06:06:38.534Z,42.61
2019-02-27T06:07:38.524Z,42.60
2019-02-27T06:08:38.512Z,43.62
2019-02-27T06:09:38.521Z,43.80
2019-02-27T06:10:38.488Z,44.43
2019-02-27T06:11:38.474Z,44.73
2019-02-27T06:12:40.875Z,44.43
2019-02-27T06:13:38.479Z,45.14
2019-02-27T06:14:38.445Z,45.74
2019-02-27T06:15:38.450Z,45.14
2019-02-27T06:16:40.717Z,45.76
2019-02-27T06:17:43.329Z,46.04
2019-02-27T06:18:39.422Z,46.04
2019-02-27T06:19:38.392Z,46.55
2019-02-27T06:20:41.588Z,46.34
2019-02-27T06:21:38.922Z,46.25
2019-02-27T06:22:38.356Z,45.62
2019-02-27T06:23:38.505Z,46.12
2019-02-27T06:24:38.331Z,46.12
2019-02-27T06:25:38.340Z,45.39
2019-02-27T06:26:38.326Z,44.49
2019-02-27T06:27:39.451Z,44.47
2019-02-27T06:28:38.295Z,44.67
2019-02-27T06:29:38.277Z,44.47
2019-02-27T06:30:38.285Z,43.84
2019-02-27T06:31:39.544Z,44.27
2019-02-27T06:32:38.246Z,43.74
2019-02-27T06:33:38.235Z,42.92
2019-02-27T06:34:38.235Z,41.01
2019-02-27T06:35:38.228Z,40.08
2019-02-27T06:36:41.981Z,41.39
2019-02-27T06:37:38.193Z,39.58
2019-02-27T06:38:38.191Z,40.59
2019-02-27T06:39:38.174Z,41.09
2019-02-27T06:40:42.040Z,40.69
2019-02-27T06:41:39.868Z,39.98
2019-02-27T06:42:38.143Z,40.91
2019-02-27T06:43:38.131Z,40.91
2019-02-27T06:44:39.258Z,41.03
2019-02-27T06:45:38.121Z,40.73
2019-02-27T06:46:38.098Z,40.42
2019-02-27T06:47:38.086Z,41.73
2019-02-27T06:48:38.085Z,41.83
2019-02-27T06:49:38.063Z,40.83
2019-02-27T06:50:38.081Z,41.25
2019-02-27T06:51:38.043Z,40.53
2019-02-27T06:52:42.063Z,40.64
2019-02-27T06:53:38.021Z,40.84
2019-02-27T06:54:38.009Z,41.75
2019-02-27T06:55:38.006Z,41.75
2019-02-27T06:56:38.005Z,41.65
2019-02-27T06:57:40.907Z,41.65
2019-02-27T06:58:37.969Z,41.75
2019-02-27T06:59:37.964Z,41.75
2019-02-27T07:00:37.947Z,41.35
2019-02-27T07:01:37.954Z,41.45
2019-02-27T07:02:37.926Z,41.35
2019-02-27T07:03:37.920Z,41.05
2019-02-27T07:04:39.516Z,41.25
2019-02-27T07:05:37.909Z,41.55
2019-02-27T07:06:37.904Z,41.05
2019-02-27T07:07:37.877Z,41.06
2019-02-27T07:08:38.649Z,41.25
2019-02-27T07:09:37.859Z,41.45
2019-02-27T07:10:37.845Z,41.57
2019-02-27T07:11:37.847Z,41.57
2019-02-27T07:12:37.823Z,41.06
2019-02-27T07:13:37.815Z,41.27
2019-02-27T07:14:39.192Z,41.27
2019-02-27T07:15:37.792Z,41.37
2019-02-27T07:16:37.795Z,41.06
2019-02-27T07:17:37.769Z,41.97
2019-02-27T07:18:41.530Z,41.67
2019-02-27T07:19:37.747Z,41.97
2019-02-27T07:20:37.735Z,41.97
2019-02-27T07:21:37.743Z,41.77
2019-02-27T07:22:37.717Z,41.47
2019-02-27T07:23:37.723Z,41.87
2019-02-27T07:24:37.698Z,41.77
2019-02-27T07:25:42.009Z,41.87
2019-02-27T07:26:38.687Z,41.57
2019-02-27T07:27:37.663Z,41.29
2019-02-27T07:28:37.648Z,41.89
2019-02-27T07:29:37.641Z,42.10
2019-02-27T07:30:39.873Z,42.40
2019-02-27T07:31:37.646Z,42.10
2019-02-27T07:32:37.613Z,42.10
2019-02-27T07:33:38.043Z,42.50
2019-02-27T07:34:37.578Z,42.10
2019-02-27T07:35:37.575Z,42.21
2019-02-27T07:36:38.530Z,42.21
2019-02-27T07:37:37.569Z,42.11
2019-02-27T07:38:37.541Z,42.30
2019-02-27T07:39:37.530Z,42.32
2019-02-27T07:40:37.519Z,42.11
2019-02-27T07:41:37.507Z,42.11
2019-02-27T07:42:37.510Z,42.41
2019-02-27T07:43:37.489Z,42.41
2019-02-27T07:44:37.474Z,42.11
2019-02-27T07:45:37.466Z,42.72
2019-02-27T07:46:37.455Z,42.40
2019-02-27T07:47:37.453Z,42.01
2019-02-27T07:48:37.433Z,42.82
2019-02-27T07:49:37.420Z,42.41
2019-02-27T07:50:37.408Z,42.32
2019-02-27T07:51:37.392Z,42.32
2019-02-27T07:52:37.413Z,42.41
2019-02-27T07:53:37.374Z,42.32
2019-02-27T07:54:37.357Z,42.82
2019-02-27T07:55:37.351Z,42.92
2019-02-27T07:56:37.350Z,42.82
2019-02-27T07:57:37.344Z,42.92
2019-02-27T07:58:37.315Z,43.12
2019-02-27T07:59:38.276Z,43.12
2019-02-27T08:00:37.295Z,42.72
2019-02-27T08:01:43.669Z,42.84
2019-02-27T08:02:38.290Z,42.94
2019-02-27T08:03:37.259Z,43.14
2019-02-27T08:04:37.249Z,42.74
2019-02-27T08:05:37.242Z,42.94
2019-02-27T08:06:37.753Z,42.74
2019-02-27T08:07:37.229Z,43.04
2019-02-27T08:08:37.222Z,42.44
2019-02-27T08:09:37.201Z,42.74
2019-02-27T08:10:37.540Z,42.46
2019-02-27T08:11:37.174Z,42.54
2019-02-27T08:12:37.191Z,42.84
2019-02-27T08:13:37.149Z,43.44
2019-02-27T08:14:37.805Z,42.84
2019-02-27T08:15:37.136Z,42.54
2019-02-27T08:16:37.142Z,42.74
2019-02-27T08:17:37.113Z,42.44
2019-02-27T08:18:38.151Z,42.76
2019-02-27T08:19:37.092Z,43.46
2019-02-27T08:20:37.082Z,43.46
2019-02-27T08:21:37.074Z,43.37
2019-02-27T08:22:37.060Z,43.46
2019-02-27T08:23:37.066Z,43.46
2019-02-27T08:24:37.038Z,42.54
2019-02-27T08:25:37.035Z,42.74
2019-02-27T08:26:37.065Z,42.74
2019-02-27T08:27:37.011Z,42.44
2019-02-27T08:28:37.018Z,43.04
2019-02-27T08:29:36.986Z,42.84
2019-02-27T08:30:36.977Z,42.44
2019-02-27T08:31:36.984Z,43.14
2019-02-27T08:32:36.967Z,42.44
2019-02-27T08:33:36.962Z,42.24
2019-02-27T08:34:36.941Z,42.44
2019-02-27T08:35:36.930Z,42.24
2019-02-27T08:36:36.917Z,42.44
2019-02-27T08:37:36.910Z,42.94
2019-02-27T08:38:36.920Z,43.14
2019-02-27T08:39:36.888Z,42.94
2019-02-27T08:40:36.878Z,43.04
2019-02-27T08:41:36.866Z,41.91
2019-02-27T08:42:38.492Z,42.72
2019-02-27T08:43:36.878Z,42.10
2019-02-27T08:44:36.836Z,42.01
2019-02-27T08:45:36.825Z,42.60
2019-02-27T08:46:37.618Z,41.69
2019-02-27T08:47:36.806Z,41.99
2019-02-27T08:48:36.813Z,41.99
2019-02-27T08:49:36.827Z,41.27
2019-02-27T08:50:36.770Z,41.77
2019-02-27T08:51:36.767Z,40.86
2019-02-27T08:52:36.754Z,41.05
2019-02-27T08:53:36.764Z,41.05
2019-02-27T08:54:36.735Z,41.05
2019-02-27T08:55:39.175Z,40.95
2019-02-27T08:56:36.708Z,40.42
2019-02-27T08:57:36.699Z,39.82
2019-02-27T08:58:36.702Z,39.62
2019-02-27T08:59:36.902Z,40.20
2019-02-27T09:00:36.666Z,40.00
2019-02-27T09:01:37.828Z,39.80
2019-02-27T09:02:36.641Z,39.60
2019-02-27T09:03:37.013Z,39.40
2019-02-27T09:04:36.619Z,39.28
2019-02-27T09:05:36.611Z,38.48
2019-02-27T09:06:36.597Z,38.58
2019-02-27T09:07:37.071Z,38.88
2019-02-27T09:08:36.575Z,38.98
2019-02-27T09:09:36.581Z,38.88
2019-02-27T09:10:36.565Z,38.88
2019-02-27T09:11:37.213Z,38.86
2019-02-27T09:12:36.533Z,38.58
2019-02-27T09:13:36.535Z,38.78
2019-02-27T09:14:36.536Z,38.98
2019-02-27T09:15:36.516Z,38.96
2019-02-27T09:16:36.494Z,38.16
2019-02-27T09:17:36.485Z,38.46
2019-02-27T09:18:36.777Z,38.06
2019-02-27T09:19:36.480Z,38.06
2019-02-27T09:20:36.450Z,37.96
2019-02-27T09:21:36.446Z,37.85
2019-02-27T09:22:36.760Z,37.76
2019-02-27T09:23:36.420Z,38.06
2019-02-27T09:24:36.422Z,38.26
2019-02-27T09:25:36.401Z,37.55
2019-02-27T09:26:36.922Z,38.46
2019-02-27T09:27:36.371Z,37.85
2019-02-27T09:28:36.370Z,38.06
2019-02-27T09:29:36.370Z,38.36
2019-02-27T09:30:36.343Z,38.16
2019-02-27T09:31:37.669Z,38.46
2019-02-27T09:32:36.321Z,38.46
2019-02-27T09:33:38.885Z,38.26
2019-02-27T09:34:36.315Z,38.36
2019-02-27T09:35:38.611Z,38.38
2019-02-27T09:36:36.288Z,38.66
2019-02-27T09:37:36.273Z,38.18
2019-02-27T09:38:36.255Z,38.98
2019-02-27T09:39:36.270Z,38.88
2019-02-27T09:40:38.937Z,39.08
2019-02-27T09:41:36.235Z,38.78
2019-02-27T09:42:36.218Z,39.08
2019-02-27T09:43:36.213Z,38.90
2019-02-27T09:44:36.589Z,38.70
2019-02-27T09:45:36.193Z,38.70
2019-02-27T09:46:36.178Z,38.68
2019-02-27T09:47:36.165Z,39.00
2019-02-27T09:48:36.153Z,38.40
2019-02-27T09:49:38.023Z,38.40
2019-02-27T09:50:36.130Z,38.60
2019-02-27T09:51:36.125Z,38.60
2019-02-27T09:52:36.113Z,39.00
2019-02-27T09:53:36.807Z,39.50
2019-02-27T09:54:36.117Z,39.60
2019-02-27T09:55:36.093Z,39.50
2019-02-27T09:56:36.076Z,39.50
2019-02-27T09:57:36.755Z,39.60
2019-02-27T09:58:36.138Z,39.10
2019-02-27T09:59:36.053Z,39.40
2019-02-27T10:00:36.023Z,39.80
2019-02-27T10:01:36.013Z,39.60
2019-02-27T10:02:36.008Z,39.60
2019-02-27T10:03:35.997Z,39.90
2019-02-27T10:04:36.031Z,39.60
2019-02-27T10:05:36.758Z,39.42
2019-02-27T10:06:35.970Z,39.60
2019-02-27T10:07:35.954Z,39.62
2019-02-27T10:08:35.944Z,39.62
2019-02-27T10:09:35.955Z,39.60
2019-02-27T10:10:35.918Z,39.80
2019-02-27T10:11:35.910Z,39.90
2019-02-27T10:12:35.900Z,39.62
2019-02-27T10:13:37.966Z,39.92
2019-02-27T10:14:35.895Z,39.50
2019-02-27T10:15:35.869Z,39.50
2019-02-27T10:16:35.859Z,39.70
2019-02-27T10:17:35.847Z,39.52
2019-02-27T10:18:35.837Z,39.32
2019-02-27T10:19:35.836Z,39.50
2019-02-27T10:20:37.337Z,39.62
2019-02-27T10:21:35.800Z,39.50
2019-02-27T10:22:35.797Z,39.62
2019-02-27T10:23:35.776Z,39.62
2019-02-27T10:24:36.875Z,39.92
2019-02-27T10:25:35.765Z,40.11
2019-02-27T10:26:35.752Z,40.12
2019-02-27T10:27:35.738Z,39.92
2019-02-27T10:28:39.167Z,39.92
2019-02-27T10:29:35.731Z,40.12
2019-02-27T10:30:35.703Z,40.22
2019-02-27T10:31:35.695Z,40.22
2019-02-27T10:32:36.690Z,40.12
2019-02-27T10:33:35.673Z,40.44
2019-02-27T10:34:36.253Z,40.33
2019-02-27T10:35:35.666Z,40.33
2019-02-27T10:36:38.038Z,40.12
2019-02-27T10:37:35.674Z,40.12
2019-02-27T10:38:40.225Z,39.52
2019-02-27T10:39:37.042Z,39.92
2019-02-27T10:40:35.597Z,39.64
2019-02-27T10:41:35.590Z,39.82
2019-02-27T10:42:35.573Z,39.92
2019-02-27T10:43:35.583Z,39.92
2019-02-27T10:44:35.571Z,40.02
2019-02-27T10:45:35.545Z,40.04
2019-02-27T10:46:35.535Z,40.14
2019-02-27T10:47:36.255Z,39.64
2019-02-27T10:48:36.855Z,39.84
2019-02-27T10:49:35.529Z,40.14
2019-02-27T10:50:36.220Z,40.14
2019-02-27T10:51:35.490Z,40.34
2019-02-27T10:52:35.466Z,39.94
2019-02-27T10:53:35.455Z,40.02
2019-02-27T10:54:36.997Z,40.22
2019-02-27T10:55:35.454Z,40.42
2019-02-27T10:56:35.422Z,39.70
2019-02-27T10:57:38.427Z,39.60
2019-02-27T10:58:35.399Z,38.49
2019-02-27T10:59:35.401Z,38.58
2019-02-27T11:00:35.375Z,38.98
2019-02-27T11:01:36.381Z,38.18
2019-02-27T11:02:35.358Z,39.08
2019-02-27T11:03:35.344Z,38.26
2019-02-27T11:04:36.348Z,37.46
2019-02-27T11:05:35.326Z,37.55
2019-02-27T11:06:37.789Z,37.84
2019-02-27T11:07:35.300Z,37.54
2019-02-27T11:08:35.294Z,37.94
2019-02-27T11:09:35.303Z,36.92
2019-02-27T11:10:35.270Z,37.63
2019-02-27T11:11:35.258Z,37.42
2019-02-27T11:12:35.252Z,37.52
2019-02-27T11:13:35.241Z,36.21
2019-02-27T11:14:35.243Z,37.12
2019-02-27T11:15:35.214Z,37.02
2019-02-27T11:16:35.212Z,37.10
2019-02-27T11:17:35.205Z,37.10
2019-02-27T11:18:35.187Z,36.70
2019-02-27T11:19:35.189Z,36.40
2019-02-27T11:20:35.166Z,36.30
2019-02-27T11:21:35.154Z,36.48
2019-02-27T11:22:35.140Z,36.10
2019-02-27T11:23:35.143Z,36.48
2019-02-27T11:24:35.163Z,36.20
2019-02-27T11:25:35.114Z,36.20
2019-02-27T11:26:35.102Z,35.68
2019-02-27T11:27:36.323Z,36.30
2019-02-27T11:28:35.083Z,36.20
2019-02-27T11:29:35.096Z,35.98
2019-02-27T11:30:36.790Z,35.98
2019-02-27T11:31:35.057Z,36.38
2019-02-27T11:32:35.039Z,36.00
2019-02-27T11:33:35.032Z,35.88
2019-02-27T11:34:35.047Z,36.20
2019-02-27T11:35:35.006Z,36.10
2019-02-27T11:36:35.085Z,35.69
2019-02-27T11:37:34.992Z,36.20
2019-02-27T11:38:34.978Z,36.20
2019-02-27T11:39:34.983Z,35.98
2019-02-27T11:40:34.959Z,35.89
2019-02-27T11:41:34.946Z,35.98
2019-02-27T11:42:34.934Z,35.68
2019-02-27T11:43:34.926Z,36.48
2019-02-27T11:44:34.946Z,36.00
2019-02-27T11:45:34.909Z,35.68
2019-02-27T11:46:35.107Z,35.69
2019-02-27T11:47:34.904Z,35.98
2019-02-27T11:48:34.872Z,35.88
2019-02-27T11:49:36.262Z,35.89
2019-02-27T11:50:34.848Z,36.70
2019-02-27T11:51:34.835Z,36.48
2019-02-27T11:52:34.826Z,36.08
2019-02-27T11:53:35.943Z,36.30
2019-02-27T11:54:34.822Z,36.40
2019-02-27T11:55:34.806Z,36.50
2019-02-27T11:56:34.790Z,36.60
2019-02-27T11:57:34.779Z,36.30
2019-02-27T11:58:38.097Z,36.50
2019-02-27T11:59:34.771Z,36.30
2019-02-27T12:00:34.743Z,36.20
2019-02-27T12:01:34.742Z,36.20
2019-02-27T12:02:37.789Z,36.60
2019-02-27T12:03:34.714Z,36.30
2019-02-27T12:04:34.715Z,36.80
2019-02-27T12:05:34.693Z,37.20
2019-02-27T12:06:34.682Z,36.20
2019-02-27T12:07:34.669Z,36.40
2019-02-27T12:08:34.662Z,37.10
2019-02-27T12:09:35.138Z,37.00
2019-02-27T12:10:34.639Z,37.00
2019-02-27T12:11:34.627Z,36.70
2019-02-27T12:12:34.618Z,37.12
2019-02-27T12:13:35.003Z,36.82
2019-02-27T12:14:34.615Z,36.80
2019-02-27T12:15:34.584Z,37.00
2019-02-27T12:16:34.577Z,37.30
2019-02-27T12:17:34.570Z,37.30
2019-02-27T12:18:35.148Z,37.02
2019-02-27T12:19:34.563Z,37.00
2019-02-27T12:20:34.532Z,36.90
2019-02-27T12:21:34.522Z,36.70
2019-02-27T12:22:35.302Z,36.90
2019-02-27T12:23:34.504Z,36.60
2019-02-27T12:24:34.524Z,36.50
2019-02-27T12:25:34.487Z,36.70
2019-02-27T12:26:37.661Z,37.00
2019-02-27T12:27:48.652Z,36.60
2019-02-27T12:28:35.451Z,37.00
2019-02-27T12:29:34.444Z,36.20
2019-02-27T12:30:36.953Z,36.70
2019-02-27T12:31:34.420Z,36.90
2019-02-27T12:32:34.412Z,36.60
2019-02-27T12:33:34.530Z,36.50
2019-02-27T12:34:37.050Z,37.30
2019-02-27T12:35:34.399Z,37.00
2019-02-27T12:36:34.365Z,36.70
2019-02-27T12:37:34.943Z,36.82
2019-02-27T12:38:34.345Z,37.10
2019-02-27T12:39:34.346Z,37.32
2019-02-27T12:40:34.336Z,36.82
2019-02-27T12:41:34.316Z,37.02
2019-02-27T12:42:37.227Z,37.12
2019-02-27T12:43:34.293Z,37.42
2019-02-27T12:44:34.581Z,37.22
2019-02-27T12:45:34.307Z,38.02
2019-02-27T12:46:34.798Z,38.62
2019-02-27T12:47:34.259Z,37.42
2019-02-27T12:48:34.241Z,38.02
2019-02-27T12:49:34.227Z,37.92
2019-02-27T12:50:34.233Z,37.82
2019-02-27T12:51:35.276Z,38.02
2019-02-27T12:52:34.193Z,38.02